Wagner, Minnesota
Current Conditions -  °F | °C
As of 2:43 AM on Sunday 26 Oct 2014 (Local Time) from K04W Reporting Station
Clear Clear  
Wind Chill: 32°   Ceiling: Unl
Heat Index: 32°   Visibility: 10mi
Dew Point: 30°   Wind: 0mph
Humidity: 93%   Direction: NA
Pressure: 30.01"   Gusts: NA
Location:  46.2114°N, 92.9743°W
Report Text: K04W 260743Z AUTO 00000KT 10SM CLR 00/M01 A3001 RMK AO2
Loading
Personal Weather Stations






























Interactive Weather Map
Tropical Storm Tracking
New forecast layout! Learn more

10-Day Weather Forecast

Advertisements
Track Severe Weather on mobile